Time;durP1;ratioP1;P1;durP2;ratioP2;P2;SDS_P1;SDS_P2;PMS_P1;PMS_P2;Temp;Humidity;BMP_temperature;BMP_pressure;BME280_temperature;BME280_humidity;BME280_pressure;Samples;Min_cycle;Max_cycle;Signal;HPM_P1;HPM_P2
2023/03/11 00:00:40;;;;;;;10.20;2.13;;;4.70;99.90;;;;;;5033217;28;20174;-72
2023/03/11 00:03:07;;;;;;;6.82;1.88;;;4.70;99.90;;;;;;5032321;28;20514;-72
2023/03/11 00:05:37;;;;;;;5.95;2.65;;;4.80;99.90;;;;;;5031734;28;20169;-72
2023/03/11 00:08:04;;;;;;;5.30;1.75;;;4.70;99.90;;;;;;5030482;28;20627;-72
2023/03/11 00:10:33;;;;;;;5.20;1.75;;;4.70;99.90;;;;;;5032933;28;20174;-72
2023/03/11 00:12:59;;;;;;;7.28;1.60;;;4.70;99.90;;;;;;5031494;28;20284;-72
2023/03/11 00:15:27;;;;;;;10.18;2.22;;;4.80;99.90;;;;;;5030659;28;20181;-72
2023/03/11 00:17:53;;;;;;;5.22;2.40;;;4.80;99.90;;;;;;5031624;28;20561;-72
2023/03/11 00:20:27;;;;;;;4.73;1.70;;;4.80;99.90;;;;;;5032124;28;20166;-78
2023/03/11 00:22:53;;;;;;;7.43;2.28;;;4.80;99.90;;;;;;5031230;28;20172;-78
2023/03/11 00:25:22;;;;;;;7.70;2.17;;;4.80;99.90;;;;;;5032398;28;20561;-79
2023/03/11 00:27:48;;;;;;;4.85;1.73;;;4.80;99.90;;;;;;5031423;28;20284;-78
2023/03/11 00:30:16;;;;;;;5.82;1.75;;;4.80;99.90;;;;;;5030814;28;20694;-79
2023/03/11 00:32:42;;;;;;;5.32;1.05;;;4.80;99.90;;;;;;5014595;28;20174;-79
2023/03/11 00:35:12;;;;;;;5.90;1.20;;;4.80;99.90;;;;;;5031388;28;20226;-79
2023/03/11 00:37:38;;;;;;;4.60;1.45;;;4.80;99.90;;;;;;5014740;28;20201;-78
2023/03/11 00:40:07;;;;;;;7.40;2.20;;;4.70;99.90;;;;;;5031466;28;20648;-79
2023/03/11 00:42:34;;;;;;;5.40;2.47;;;4.70;99.90;;;;;;5030773;28;20584;-78
2023/03/11 00:45:00;;;;;;;7.33;1.93;;;4.70;99.90;;;;;;5015146;28;20201;-77
2023/03/11 00:47:26;;;;;;;6.68;1.63;;;4.60;99.90;;;;;;5031249;28;20174;-76
2023/03/11 00:49:52;;;;;;;3.97;1.43;;;4.60;99.90;;;;;;5034348;28;20170;-77
2023/03/11 00:52:18;;;;;;;4.13;1.40;;;4.60;99.90;;;;;;5030006;28;20684;-78
2023/03/11 00:54:45;;;;;;;5.47;1.70;;;4.50;99.90;;;;;;5014375;28;20185;-78
2023/03/11 00:57:11;;;;;;;5.00;1.95;;;4.50;99.90;;;;;;5013757;28;20584;-78
2023/03/11 00:59:37;;;;;;;4.50;2.33;;;4.50;99.90;;;;;;5013960;28;20204;-78
2023/03/11 01:02:02;;;;;;;6.67;1.60;;;4.50;99.90;;;;;;5030469;28;20178;-79
2023/03/11 01:04:28;;;;;;;7.93;1.70;;;4.50;99.90;;;;;;5030255;28;20263;-79
2023/03/11 01:06:54;;;;;;;6.47;1.67;;;4.50;99.90;;;;;;5047430;28;20952;-79
2023/03/11 01:09:20;;;;;;;4.63;1.70;;;4.50;99.90;;;;;;4997238;28;20616;-78
2023/03/11 01:11:45;;;;;;;3.53;2.10;;;4.50;99.90;;;;;;5030194;28;20522;-79
2023/03/11 01:14:11;;;;;;;8.27;2.43;;;4.50;99.90;;;;;;5029968;28;20212;-78
2023/03/11 01:16:37;;;;;;;5.10;1.83;;;4.50;99.90;;;;;;5031872;28;20176;-79
2023/03/11 01:19:03;;;;;;;5.33;1.70;;;4.50;99.90;;;;;;5029175;28;20608;-79
2023/03/11 01:21:28;;;;;;;8.03;2.00;;;4.50;99.90;;;;;;5031603;28;20642;-78
2023/03/11 01:23:54;;;;;;;7.80;3.13;;;4.60;99.90;;;;;;5013680;28;20197;-78
2023/03/11 01:26:20;;;;;;;5.37;2.80;;;4.60;99.90;;;;;;5030008;28;20519;-79
2023/03/11 01:28:45;;;;;;;8.57;3.50;;;4.60;99.90;;;;;;5030346;28;20239;-79
2023/03/11 01:31:11;;;;;;;12.30;4.60;;;4.60;99.90;;;;;;5029745;28;20178;-78
2023/03/11 01:33:37;;;;;;;6.68;3.47;;;4.60;99.90;;;;;;5013606;28;20209;-79
2023/03/11 01:36:04;;;;;;;5.00;2.30;;;4.60;99.90;;;;;;5013284;28;20518;-79
2023/03/11 01:38:30;;;;;;;9.05;3.70;;;4.60;99.90;;;;;;5030067;28;20199;-79
2023/03/11 01:40:56;;;;;;;8.93;4.27;;;4.70;99.90;;;;;;5031021;28;20169;-79
2023/03/11 01:43:39;;;;;;;9.70;2.33;;;4.70;99.90;;;;;;5013685;28;20705;-78
2023/03/11 01:46:14;;;;;;;4.30;1.95;;;4.70;99.90;;;;;;5029669;28;20604;-78
2023/03/11 01:48:47;;;;;;;7.57;1.92;;;4.70;99.90;;;;;;5029793;28;20280;-78
2023/03/11 01:51:13;;;;;;;3.97;1.40;;;4.70;99.90;;;;;;5029936;28;20174;-78
2023/03/11 01:53:39;;;;;;;5.63;1.80;;;4.70;99.90;;;;;;5029256;28;20204;-78
2023/03/11 01:56:05;;;;;;;6.40;1.70;;;4.70;99.90;;;;;;5013409;28;20166;-78
2023/03/11 01:58:36;;;;;;;6.90;2.13;;;4.70;99.90;;;;;;5029367;28;21003;-78
2023/03/11 02:01:03;;;;;;;4.05;1.00;;;4.70;99.90;;;;;;5013524;28;20660;-78
2023/03/11 02:03:35;;;;;;;3.40;1.25;;;4.70;99.90;;;;;;5028196;28;20220;-78
2023/03/11 02:06:05;;;;;;;6.35;1.55;;;4.60;99.90;;;;;;5003248;28;20605;-78
2023/03/11 02:08:34;;;;;;;6.38;2.17;;;4.60;99.90;;;;;;5017431;28;20224;-78
2023/03/11 02:11:05;;;;;;;8.68;1.95;;;4.60;99.90;;;;;;5032755;28;20204;-78
2023/03/11 02:13:34;;;;;;;4.55;1.30;;;4.50;99.90;;;;;;5009629;28;20205;-78
2023/03/11 02:16:00;;;;;;;4.60;1.30;;;4.50;99.90;;;;;;5018177;28;20178;-78
2023/03/11 02:18:26;;;;;;;5.10;1.42;;;4.50;99.90;;;;;;5009855;28;20296;-78
2023/03/11 02:21:10;;;;;;;3.70;1.50;;;4.50;99.90;;;;;;5003875;28;20264;-78
2023/03/11 02:24:05;;;;;;;9.65;1.80;;;4.50;99.90;;;;;;5029298;28;20534;-78
2023/03/11 02:26:57;;;;;;;6.53;1.95;;;4.50;99.90;;;;;;5012787;28;20174;-78
2023/03/11 02:29:26;;;;;;;5.97;1.55;;;4.50;99.90;;;;;;5008370;28;20211;-78
2023/03/11 02:31:53;;;;;;;5.95;1.98;;;4.50;99.90;;;;;;5012279;28;20204;-78
2023/03/11 02:34:29;;;;;;;17.83;2.13;;;4.50;99.90;;;;;;4997533;28;20236;-78
2023/03/11 02:36:56;;;;;;;5.60;1.52;;;4.50;99.90;;;;;;5013580;28;20243;-78
2023/03/11 02:39:30;;;;;;;5.95;1.33;;;4.40;99.90;;;;;;4997252;28;20241;-78
2023/03/11 02:41:57;;;;;;;3.25;1.60;;;4.40;99.90;;;;;;4996606;28;20174;-78
2023/03/11 02:44:23;;;;;;;4.90;1.75;;;4.30;99.90;;;;;;5029971;28;20247;-78
2023/03/11 02:46:50;;;;;;;5.78;1.90;;;4.30;99.90;;;;;;5002762;28;20170;-78
2023/03/11 02:49:16;;;;;;;8.55;3.08;;;4.20;99.90;;;;;;5013571;28;20638;-78
2023/03/11 02:51:42;;;;;;;6.70;2.00;;;4.20;99.90;;;;;;4996905;28;20175;-78
2023/03/11 02:54:08;;;;;;;4.13;1.40;;;4.20;99.90;;;;;;5029412;28;20293;-78
2023/03/11 02:56:35;;;;;;;8.40;2.47;;;4.10;99.90;;;;;;4997119;28;20174;-78
2023/03/11 02:59:00;;;;;;;6.43;2.13;;;4.10;99.90;;;;;;4996455;28;20270;-78
2023/03/11 03:01:28;;;;;;;5.72;1.63;;;4.10;99.90;;;;;;4996938;28;20175;-78
2023/03/11 03:03:54;;;;;;;4.50;1.80;;;4.10;99.90;;;;;;5012464;28;20201;-78
2023/03/11 03:06:20;;;;;;;7.60;2.27;;;4.10;99.90;;;;;;4997003;28;20170;-78
2023/03/11 03:08:48;;;;;;;4.18;1.45;;;4.10;99.90;;;;;;5015673;28;20628;-78
2023/03/11 03:11:14;;;;;;;5.82;2.38;;;4.00;99.90;;;;;;5016349;28;20170;-78
2023/03/11 03:13:40;;;;;;;6.50;2.20;;;4.00;99.90;;;;;;5015886;28;20177;-78
2023/03/11 03:16:06;;;;;;;7.10;2.80;;;4.00;99.90;;;;;;5038794;28;20185;-78
2023/03/11 03:18:32;;;;;;;14.80;2.78;;;4.00;99.90;;;;;;5032711;28;20228;-78
2023/03/11 03:20:58;;;;;;;9.00;3.40;;;3.90;99.90;;;;;;5013285;28;20173;-78
2023/03/11 03:23:24;;;;;;;7.23;2.83;;;3.90;99.90;;;;;;5032475;28;20251;-78
2023/03/11 03:25:50;;;;;;;6.60;2.07;;;3.80;99.90;;;;;;5015660;28;20162;-78
2023/03/11 03:28:16;;;;;;;2.65;1.40;;;3.80;99.90;;;;;;5032655;28;20336;-78
2023/03/11 03:30:44;;;;;;;4.82;1.63;;;3.70;99.90;;;;;;5032272;28;20170;-78
2023/03/11 03:33:11;;;;;;;6.15;2.00;;;3.70;99.90;;;;;;5032083;28;20173;-78
2023/03/11 03:35:41;;;;;;;3.40;1.53;;;3.70;99.90;;;;;;5032323;28;20583;-78
2023/03/11 03:38:13;;;;;;;4.63;1.80;;;3.60;99.90;;;;;;5049129;28;20229;-78
2023/03/11 03:40:44;;;;;;;3.42;1.85;;;3.50;99.90;;;;;;5032554;28;20169;-78
2023/03/11 03:43:10;;;;;;;6.22;2.13;;;3.50;99.90;;;;;;5047230;28;20252;-78
2023/03/11 03:45:37;;;;;;;3.78;1.77;;;3.50;99.90;;;;;;5032184;28;20177;-78
2023/03/11 03:48:04;;;;;;;5.35;1.95;;;3.40;99.90;;;;;;5031733;28;20233;-78
2023/03/11 03:50:33;;;;;;;2.90;1.65;;;3.40;99.90;;;;;;5032183;28;20208;-78
2023/03/11 03:52:59;;;;;;;3.93;1.40;;;3.40;99.90;;;;;;5030403;28;20251;-78
2023/03/11 03:55:25;;;;;;;3.75;1.33;;;3.30;99.90;;;;;;5032246;28;20577;-78
2023/03/11 03:57:52;;;;;;;3.67;1.13;;;3.30;99.90;;;;;;5031498;28;20206;-78
2023/03/11 04:00:20;;;;;;;4.07;1.50;;;3.30;99.90;;;;;;5015414;28;20178;-78
2023/03/11 04:02:53;;;;;;;3.60;1.10;;;3.20;99.90;;;;;;5014874;28;20641;-78
2023/03/11 04:05:26;;;;;;;3.42;1.10;;;3.10;99.90;;;;;;5031833;28;20215;-78
2023/03/11 04:07:53;;;;;;;2.10;1.00;;;3.10;99.90;;;;;;5031606;28;20205;-78
2023/03/11 04:10:20;;;;;;;5.93;1.10;;;3.10;99.90;;;;;;5031365;28;20174;-78
2023/03/11 04:12:46;;;;;;;5.13;1.00;;;3.00;99.90;;;;;;5031393;28;20192;-78
2023/03/11 04:15:12;;;;;;;5.30;1.00;;;2.90;99.90;;;;;;5031279;28;20587;-78
2023/03/11 04:17:40;;;;;;;5.93;1.15;;;2.90;99.90;;;;;;5031401;28;20211;-78
2023/03/11 04:20:08;;;;;;;2.95;1.20;;;2.90;99.90;;;;;;5047848;28;20188;-79
2023/03/11 04:22:34;;;;;;;7.53;1.42;;;2.90;99.90;;;;;;5031197;28;20557;-78
2023/03/11 04:25:00;;;;;;;3.03;1.20;;;2.90;99.90;;;;;;5032417;28;20197;-78
2023/03/11 04:27:27;;;;;;;6.57;1.00;;;2.90;99.90;;;;;;5014969;28;20257;-78
2023/03/11 04:29:53;;;;;;;3.17;1.20;;;2.80;99.90;;;;;;5014827;28;20260;-78
2023/03/11 04:32:21;;;;;;;3.30;0.80;;;2.90;99.90;;;;;;5030191;28;20581;-78
2023/03/11 04:34:47;;;;;;;4.53;1.33;;;2.90;99.90;;;;;;5014987;28;20294;-78
2023/03/11 04:37:14;;;;;;;5.22;1.15;;;2.80;99.90;;;;;;5014315;28;20280;-78
2023/03/11 04:39:40;;;;;;;2.10;1.25;;;2.80;99.90;;;;;;5030792;28;20243;-78
2023/03/11 04:42:06;;;;;;;5.13;1.63;;;2.80;99.90;;;;;;5030375;28;20180;-78
2023/03/11 04:44:34;;;;;;;3.08;1.10;;;2.80;99.90;;;;;;5014672;28;20577;-78
2023/03/11 04:47:00;;;;;;;4.90;1.00;;;2.80;99.90;;;;;;5030698;28;20260;-78
2023/03/11 04:49:26;;;;;;;5.47;1.13;;;2.80;99.90;;;;;;5031059;28;20641;-78
2023/03/11 04:51:52;;;;;;;5.93;1.08;;;2.80;99.90;;;;;;5014095;28;20610;-78
2023/03/11 04:54:21;;;;;;;2.33;0.80;;;2.80;99.90;;;;;;5030349;28;20177;-78
2023/03/11 04:56:47;;;;;;;2.90;0.90;;;2.70;99.90;;;;;;5031099;28;20566;-78
2023/03/11 04:59:12;;;;;;;5.00;1.30;;;2.70;99.90;;;;;;5013600;28;20275;-78
2023/03/11 05:01:40;;;;;;;4.93;0.90;;;2.70;99.90;;;;;;5030549;28;20185;-78
2023/03/11 05:04:07;;;;;;;3.75;1.10;;;2.70;99.90;;;;;;5013913;28;20212;-78
2023/03/11 05:06:34;;;;;;;6.97;1.05;;;2.70;99.90;;;;;;5030699;28;20174;-78
2023/03/11 05:09:03;;;;;;;4.90;1.10;;;2.70;99.90;;;;;;5030011;28;20236;-78
2023/03/11 05:11:32;;;;;;;3.83;0.90;;;2.70;99.90;;;;;;5030907;28;20219;-78
2023/03/11 05:13:57;;;;;;;2.93;1.10;;;2.70;99.90;;;;;;5030754;28;20201;-78
2023/03/11 05:16:23;;;;;;;3.70;1.10;;;2.70;99.90;;;;;;5013896;28;20284;-78
2023/03/11 05:18:49;;;;;;;6.03;1.10;;;2.70;99.90;;;;;;5031893;28;21217;-78
2023/03/11 05:21:15;;;;;;;3.10;1.10;;;2.70;99.90;;;;;;5013544;28;20623;-78
2023/03/11 05:23:41;;;;;;;4.67;1.20;;;2.70;99.90;;;;;;5013644;28;20209;-78
2023/03/11 05:26:07;;;;;;;4.72;1.20;;;2.80;99.90;;;;;;5046632;28;20272;-78
2023/03/11 05:28:34;;;;;;;2.25;0.90;;;2.80;99.90;;;;;;5030389;28;20222;-78
2023/03/11 05:31:00;;;;;;;4.75;1.00;;;2.80;99.90;;;;;;5013319;28;20228;-78
2023/03/11 05:33:34;;;;;;;3.50;1.00;;;2.90;99.90;;;;;;5030075;28;20186;-78
2023/03/11 05:36:08;;;;;;;3.83;1.20;;;2.90;99.90;;;;;;5013252;28;20174;-78
2023/03/11 05:38:36;;;;;;;4.45;1.20;;;3.00;99.90;;;;;;5046883;28;20201;-78
2023/03/11 05:41:02;;;;;;;2.53;1.10;;;3.00;99.90;;;;;;5030272;28;20186;-78
2023/03/11 05:43:28;;;;;;;5.70;1.75;;;3.00;99.90;;;;;;5029340;28;20173;-78
2023/03/11 05:45:54;;;;;;;3.33;1.00;;;3.00;99.90;;;;;;5030101;28;20200;-78
2023/03/11 05:48:19;;;;;;;3.10;0.90;;;3.10;99.90;;;;;;5029548;28;20189;-78
2023/03/11 05:50:45;;;;;;;3.10;1.03;;;3.10;99.90;;;;;;5013446;28;20169;-78
2023/03/11 05:53:12;;;;;;;3.45;1.10;;;3.10;99.90;;;;;;5012538;28;20635;-78
2023/03/11 05:55:37;;;;;;;4.33;1.40;;;3.10;99.90;;;;;;5013819;28;20208;-78
2023/03/11 05:58:03;;;;;;;2.30;1.10;;;3.20;99.90;;;;;;5012839;28;20678;-78
2023/03/11 06:00:30;;;;;;;3.67;1.05;;;3.20;99.90;;;;;;5013680;28;20588;-78
2023/03/11 06:02:58;;;;;;;2.63;1.20;;;3.20;99.90;;;;;;5029532;28;20631;-78
2023/03/11 06:05:24;;;;;;;7.17;1.80;;;3.20;99.90;;;;;;5028751;28;20232;-78
2023/03/11 06:07:52;;;;;;;9.55;1.45;;;3.30;99.90;;;;;;5029649;28;20616;-78
2023/03/11 06:10:18;;;;;;;4.10;1.20;;;3.30;99.90;;;;;;5029393;28;20178;-78
2023/03/11 06:12:45;;;;;;;3.78;0.90;;;3.30;99.90;;;;;;5029193;28;20256;-78
2023/03/11 06:15:16;;;;;;;5.03;0.95;;;3.30;99.90;;;;;;5029451;28;20291;-78
2023/03/11 06:17:42;;;;;;;5.13;1.50;;;3.40;99.90;;;;;;5030998;28;20276;-78
2023/03/11 06:20:09;;;;;;;5.47;1.58;;;3.40;99.90;;;;;;5029244;28;20177;-79
2023/03/11 06:22:34;;;;;;;4.45;1.02;;;3.40;99.90;;;;;;5029344;28;20174;-79
2023/03/11 06:25:00;;;;;;;3.73;1.20;;;3.40;99.90;;;;;;5045887;28;20225;-79
2023/03/11 06:27:29;;;;;;;6.55;1.15;;;3.50;99.90;;;;;;5029482;28;20580;-78
2023/03/11 06:29:55;;;;;;;3.10;1.10;;;3.50;99.90;;;;;;5013178;28;20181;-78
2023/03/11 06:32:23;;;;;;;3.13;1.15;;;3.60;99.90;;;;;;5028883;28;20576;-79
2023/03/11 06:34:50;;;;;;;3.95;1.50;;;3.70;99.90;;;;;;5029681;28;20252;-79
2023/03/11 06:37:17;;;;;;;5.65;1.40;;;3.70;99.90;;;;;;5029185;28;20185;-79
2023/03/11 06:39:42;;;;;;;2.65;1.60;;;3.80;99.90;;;;;;5038725;28;20177;-79
2023/03/11 06:42:12;;;;;;;2.92;1.02;;;3.90;99.90;;;;;;5028864;28;20205;-79
2023/03/11 06:44:39;;;;;;;4.05;1.17;;;3.90;99.90;;;;;;5029482;28;20301;-78
2023/03/11 06:47:05;;;;;;;5.47;1.20;;;4.00;99.90;;;;;;5012666;28;20240;-79
2023/03/11 06:49:32;;;;;;;5.05;1.30;;;4.10;99.90;;;;;;5029809;28;21049;-79
2023/03/11 06:51:57;;;;;;;6.00;1.40;;;4.20;99.90;;;;;;5012902;28;20252;-79
2023/03/11 06:54:23;;;;;;;3.27;1.60;;;4.20;99.90;;;;;;5029214;28;20170;-79
2023/03/11 06:56:49;;;;;;;2.58;1.00;;;4.30;99.90;;;;;;5029430;28;20178;-78
2023/03/11 06:59:15;;;;;;;4.30;1.30;;;4.30;99.90;;;;;;5028711;28;20221;-78
2023/03/11 07:01:41;;;;;;;2.90;1.60;;;4.40;99.90;;;;;;5029169;28;20176;-78
2023/03/11 07:04:09;;;;;;;5.15;1.35;;;4.40;99.90;;;;;;5028897;28;20208;-78
2023/03/11 07:06:37;;;;;;;2.47;1.33;;;4.50;99.90;;;;;;5012525;28;20185;-78
2023/03/11 07:09:12;;;;;;;3.65;1.25;;;4.50;99.90;;;;;;5012288;28;20295;-78
2023/03/11 07:11:41;;;;;;;3.97;1.45;;;4.60;99.90;;;;;;5028854;28;20184;-78
2023/03/11 07:14:11;;;;;;;4.40;1.13;;;4.60;99.90;;;;;;5028943;28;20205;-74
2023/03/11 07:16:41;;;;;;;3.60;1.13;;;4.70;99.90;;;;;;5030293;28;20612;-74
2023/03/11 07:19:14;;;;;;;4.45;1.63;;;4.80;99.90;;;;;;5032633;28;20243;-74
2023/03/11 07:21:40;;;;;;;4.53;1.67;;;4.90;99.90;;;;;;5005893;28;20174;-75
2023/03/11 07:24:06;;;;;;;5.57;3.28;;;5.00;99.90;;;;;;5014174;28;20206;-74
2023/03/11 07:26:33;;;;;;;2.87;1.20;;;5.10;99.90;;;;;;4996132;28;20174;-74
2023/03/11 07:29:00;;;;;;;2.47;1.15;;;5.30;99.90;;;;;;5012795;28;20704;-75
2023/03/11 07:31:29;;;;;;;5.05;1.20;;;5.40;99.90;;;;;;5012187;28;20272;-75
2023/03/11 07:34:01;;;;;;;5.55;1.50;;;5.50;99.90;;;;;;5012446;28;20178;-74
2023/03/11 07:36:28;;;;;;;5.05;1.27;;;5.60;99.90;;;;;;5013759;28;20209;-74
2023/03/11 07:39:01;;;;;;;4.10;1.60;;;5.60;99.90;;;;;;5012732;28;20190;-75
2023/03/11 07:41:29;;;;;;;4.80;1.40;;;5.60;99.90;;;;;;5013531;28;20492;-74
2023/03/11 07:43:56;;;;;;;5.55;1.27;;;5.70;99.90;;;;;;5013506;28;20209;-74
2023/03/11 07:46:24;;;;;;;3.28;1.30;;;5.70;99.90;;;;;;5012366;28;20183;-75
2023/03/11 07:48:50;;;;;;;2.50;2.03;;;5.80;99.90;;;;;;5011915;28;20233;-74
2023/03/11 07:51:25;;;;;;;4.78;1.25;;;5.80;99.90;;;;;;5013614;28;20174;-74
2023/03/11 07:53:53;;;;;;;5.47;1.27;;;5.90;99.90;;;;;;5011884;28;20174;-74
2023/03/11 07:56:22;;;;;;;3.75;1.48;;;6.00;99.90;;;;;;5013620;28;20182;-75
2023/03/11 07:58:49;;;;;;;4.32;1.45;;;6.20;99.90;;;;;;5019368;28;20198;-75
2023/03/11 08:01:18;;;;;;;3.85;1.48;;;6.50;99.90;;;;;;5031334;28;20182;-74
2023/03/11 08:03:46;;;;;;;5.18;1.00;;;7.00;99.90;;;;;;5030895;28;20229;-75
2023/03/11 08:06:20;;;;;;;3.03;1.00;;;7.70;99.90;;;;;;5031756;28;20311;-75
2023/03/11 08:08:47;;;;;;;3.42;1.63;;;8.60;99.90;;;;;;5031225;28;20254;-75
2023/03/11 08:11:14;;;;;;;3.35;1.50;;;9.70;99.90;;;;;;5032856;28;20174;-75
2023/03/11 08:13:42;;;;;;;4.90;1.43;;;10.60;99.90;;;;;;5032611;28;20177;-75
2023/03/11 08:16:09;;;;;;;4.60;1.10;;;11.50;99.90;;;;;;5028485;28;21160;-75
2023/03/11 08:18:34;;;;;;;3.87;2.77;;;12.40;99.90;;;;;;5031297;28;20620;-75
2023/03/11 08:21:08;;;;;;;4.23;1.30;;;13.40;99.90;;;;;;5031965;28;20580;-76
2023/03/11 08:23:34;;;;;;;5.37;1.40;;;14.30;99.90;;;;;;5048110;28;20174;-74
2023/03/11 08:26:12;;;;;;;6.83;1.50;;;15.30;99.90;;;;;;5014768;28;20666;-73
2023/03/11 08:28:37;;;;;;;9.60;2.23;;;16.30;99.90;;;;;;5030839;28;20612;-74
2023/03/11 08:31:14;;;;;;;5.73;1.33;;;17.10;99.90;;;;;;5028214;28;20605;-74
2023/03/11 08:33:42;;;;;;;4.73;1.20;;;17.90;99.90;;;;;;5028623;28;20197;-74
2023/03/11 08:36:07;;;;;;;3.47;0.90;;;18.60;99.90;;;;;;5030869;28;20607;-74
2023/03/11 08:38:33;;;;;;;5.20;1.20;;;19.20;99.90;;;;;;5031023;28;20657;-74
2023/03/11 08:40:59;;;;;;;3.80;1.10;;;19.60;99.90;;;;;;5032691;28;20576;-74
2023/03/11 08:43:25;;;;;;;2.37;1.10;;;20.00;99.90;;;;;;5027695;28;20231;-73
2023/03/11 08:45:51;;;;;;;4.60;1.30;;;20.40;99.90;;;;;;5031193;28;20585;-74
2023/03/11 08:48:16;;;;;;;4.00;1.10;;;20.70;99.90;;;;;;5029087;28;20194;-74
2023/03/11 08:50:43;;;;;;;2.20;0.93;;;21.00;99.90;;;;;;5032537;28;20647;-74
2023/03/11 08:53:09;;;;;;;3.80;0.80;;;21.30;99.90;;;;;;5031290;28;20177;-73
2023/03/11 08:55:34;;;;;;;3.93;1.20;;;21.50;99.90;;;;;;5032351;28;20639;-74
2023/03/11 08:58:01;;;;;;;2.77;0.87;;;21.90;99.90;;;;;;5029716;28;20632;-73
2023/03/11 09:00:26;;;;;;;2.80;1.23;;;22.30;99.90;;;;;;5030755;28;20704;-80
2023/03/11 09:02:52;;;;;;;2.57;0.80;;;22.70;99.90;;;;;;5033182;28;20580;-81
2023/03/11 09:05:18;;;;;;;2.73;0.90;;;23.00;99.90;;;;;;5031891;28;20205;-81
2023/03/11 09:07:44;;;;;;;8.07;1.80;;;23.40;99.90;;;;;;5029882;28;20216;-81
2023/03/11 09:10:13;;;;;;;1.93;0.87;;;23.70;99.90;;;;;;5023772;28;20184;-82
2023/03/11 09:12:39;;;;;;;2.70;0.97;;;24.00;99.90;;;;;;5018881;28;20201;-81
2023/03/11 09:15:06;;;;;;;1.70;0.70;;;24.10;98.50;;;;;;5030059;28;20600;-85
2023/03/11 09:17:31;;;;;;;3.30;1.00;;;23.90;96.80;;;;;;5031800;28;20224;-86
2023/03/11 09:19:57;;;;;;;3.10;0.80;;;23.30;94.30;;;;;;5030594;28;20967;-86
2023/03/11 09:22:23;;;;;;;2.67;0.80;;;22.70;92.90;;;;;;5031792;28;20247;-86
2023/03/11 09:24:48;;;;;;;6.43;1.20;;;22.20;92.30;;;;;;5031866;28;20198;-86
2023/03/11 09:27:14;;;;;;;2.40;0.80;;;22.00;94.10;;;;;;5031515;28;20169;-87
2023/03/11 09:29:41;;;;;;;2.13;0.60;;;21.90;94.20;;;;;;5030823;28;20228;-86
2023/03/11 09:32:08;;;;;;;1.40;0.50;;;22.10;94.90;;;;;;5041054;28;20146;-87
2023/03/11 09:34:34;;;;;;;2.60;0.60;;;22.40;95.00;;;;;;5041815;28;20584;-89
2023/03/11 09:37:00;;;;;;;1.80;0.70;;;22.70;93.70;;;;;;5036483;28;20593;-88
2023/03/11 09:39:26;;;;;;;3.53;0.70;;;22.40;90.00;;;;;;5039988;28;20186;-89
2023/03/11 09:41:57;;;;;;;3.20;0.83;;;21.90;87.70;;;;;;5032823;28;20603;-88
2023/03/11 09:44:38;;;;;;;2.40;0.90;;;21.60;88.90;;;;;;5036180;28;20561;-82
2023/03/11 09:47:33;;;;;;;3.63;0.80;;;21.30;85.70;;;;;;5028731;28;20611;-82
2023/03/11 09:50:07;;;;;;;2.23;0.70;;;20.70;84.20;;;;;;5032324;28;21124;-84
2023/03/11 09:52:43;;;;;;;2.27;0.80;;;20.30;85.60;;;;;;5038800;28;20584;-84
2023/03/11 09:55:20;;;;;;;1.50;0.60;;;20.00;72.70;;;;;;5037187;28;20613;-83
2023/03/11 09:57:47;;;;;;;5.13;0.80;;;19.50;79.40;;;;;;5032864;28;20619;-83
2023/03/11 10:00:17;;;;;;;2.47;0.90;;;18.80;76.20;;;;;;5031350;28;20587;-83
2023/03/11 10:02:44;;;;;;;2.10;0.80;;;18.20;76.10;;;;;;5033521;28;20572;-84
2023/03/11 10:05:24;;;;;;;3.53;0.80;;;18.10;81.40;;;;;;5035433;28;20651;-85
2023/03/11 10:08:10;;;;;;;2.00;0.70;;;18.20;83.10;;;;;;5036334;28;20615;-84
2023/03/11 10:10:42;;;;;;;2.43;0.60;;;17.90;76.60;;;;;;5033989;28;20600;-83
2023/03/11 10:13:27;;;;;;;1.90;0.57;;;17.40;76.00;;;;;;5043267;28;20650;-83
2023/03/11 10:16:21;;;;;;;1.93;0.60;;;16.80;73.10;;;;;;5041925;28;20576;-82
2023/03/11 10:18:58;;;;;;;1.87;0.50;;;16.20;73.30;;;;;;5050440;28;20623;-83
2023/03/11 10:21:43;;;;;;;2.20;0.60;;;15.50;72.10;;;;;;5042049;28;20593;-82
2023/03/11 10:24:52;;;;;;;1.40;0.50;;;14.90;68.50;;;;;;5040132;28;20628;-83
2023/03/11 10:27:31;;;;;;;2.30;0.50;;;14.70;76.20;;;;;;4967984;28;20616;-83
2023/03/11 10:29:57;;;;;;;1.87;0.60;;;15.00;78.40;;;;;;4968466;28;20570;-82
2023/03/11 10:32:48;;;;;;;1.30;0.47;;;15.40;84.10;;;;;;5011680;28;20687;-83
2023/03/11 10:35:25;;;;;;;3.53;0.60;;;15.90;83.30;;;;;;5043345;28;20170;-82
2023/03/11 10:38:02;;;;;;;4.90;0.70;;;16.40;86.50;;;;;;5041025;28;20604;-82
2023/03/11 10:40:34;;;;;;;1.33;0.63;;;16.70;83.80;;;;;;5037195;28;20588;-83
2023/03/11 10:43:11;;;;;;;1.87;0.60;;;16.80;81.60;;;;;;5039910;28;20576;-82
2023/03/11 10:45:43;;;;;;;3.47;0.90;;;17.00;83.00;;;;;;5042861;28;20723;-81
2023/03/11 10:48:11;;;;;;;1.67;0.67;;;17.30;87.00;;;;;;5045755;28;20634;-83
2023/03/11 10:50:48;;;;;;;2.00;0.60;;;17.40;84.70;;;;;;5045429;28;20611;-84
2023/03/11 10:53:16;;;;;;;4.20;0.97;;;17.60;80.20;;;;;;5041915;28;20641;-84
2023/03/11 10:55:53;;;;;;;2.80;0.70;;;17.70;83.60;;;;;;5043991;28;20599;-84
2023/03/11 10:58:25;;;;;;;2.80;0.83;;;17.80;82.30;;;;;;5042463;28;20616;-84
2023/03/11 11:01:14;;;;;;;3.77;1.13;;;17.90;81.20;;;;;;5054312;28;20626;-83
2023/03/11 11:03:42;;;;;;;6.97;1.60;;;17.80;76.60;;;;;;5053137;28;20608;-83
2023/03/11 11:06:24;;;;;;;2.20;0.97;;;17.70;74.70;;;;;;5053949;28;20557;-84
2023/03/11 11:09:18;;;;;;;2.87;0.70;;;17.40;74.00;;;;;;5042877;28;20724;-84
2023/03/11 11:12:12;;;;;;;3.70;1.30;;;17.10;74.10;;;;;;5049651;28;20584;-84
2023/03/11 11:14:46;;;;;;;2.07;0.80;;;16.60;70.80;;;;;;5037206;28;20626;-84
2023/03/11 11:17:33;;;;;;;3.93;0.80;;;16.10;69.90;;;;;;5028890;28;20572;-84
2023/03/11 11:20:11;;;;;;;5.27;1.10;;;15.60;70.30;;;;;;5032402;28;20702;-84
2023/03/11 11:22:46;;;;;;;3.17;0.80;;;15.20;70.20;;;;;;5033113;28;20573;-85
2023/03/11 11:25:36;;;;;;;2.53;0.70;;;14.80;71.30;;;;;;5031865;28;21070;-85
2023/03/11 11:28:16;;;;;;;2.43;0.70;;;14.30;69.80;;;;;;5026015;28;20605;-85
2023/03/11 11:31:04;;;;;;;3.20;1.00;;;14.00;71.00;;;;;;5020361;28;20584;-82
2023/03/11 11:33:47;;;;;;;3.00;1.00;;;13.60;69.90;;;;;;5019620;28;20679;-83
2023/03/11 11:36:15;;;;;;;2.63;0.80;;;13.40;71.80;;;;;;5016448;28;20667;-83
2023/03/11 11:38:41;;;;;;;3.50;0.70;;;13.00;69.80;;;;;;5023108;28;20668;-83
2023/03/11 11:41:19;;;;;;;4.73;0.83;;;12.80;70.20;;;;;;5022428;28;20605;-83
2023/03/11 11:43:57;;;;;;;2.37;1.50;;;12.60;70.90;;;;;;5002876;28;20637;-84
2023/03/11 11:46:45;;;;;;;5.53;1.50;;;12.50;72.40;;;;;;5025319;28;20592;-84
2023/03/11 11:49:24;;;;;;;3.80;1.17;;;12.30;71.20;;;;;;5034828;28;20616;-84
2023/03/11 11:52:15;;;;;;;3.15;0.95;;;12.10;73.40;;;;;;5034824;28;20588;-84
2023/03/11 11:55:00;;;;;;;1.90;0.80;;;12.00;72.90;;;;;;5035034;28;20192;-84
2023/03/11 11:57:27;;;;;;;3.63;1.00;;;11.90;73.50;;;;;;5040654;28;20169;-84
2023/03/11 11:59:53;;;;;;;1.93;0.60;;;11.80;75.60;;;;;;5037055;28;20521;-86
2023/03/11 12:03:00;;;;;;;3.40;1.10;;;11.90;77.00;;;;;;5033591;28;20580;-85
2023/03/11 12:05:33;;;;;;;4.87;2.27;;;11.90;76.00;;;;;;5031733;28;20201;-84
2023/03/11 12:08:05;;;;;;;2.97;1.20;;;12.00;77.80;;;;;;5032016;28;20612;-86
2023/03/11 12:10:41;;;;;;;3.37;1.27;;;12.10;79.00;;;;;;5034826;28;20576;-87
2023/03/11 12:13:25;;;;;;;3.23;1.23;;;12.20;78.80;;;;;;5034969;28;20596;-87
2023/03/11 12:16:04;;;;;;;5.10;3.40;;;12.40;80.30;;;;;;5039312;28;20726;-87
2023/03/11 12:18:43;;;;;;;7.03;3.23;;;12.70;82.80;;;;;;5037304;28;20599;-87
2023/03/11 12:21:26;;;;;;;4.70;2.20;;;13.00;84.20;;;;;;5035150;28;20590;-88
2023/03/11 12:24:07;;;;;;;4.60;1.10;;;13.20;80.40;;;;;;5035532;28;20658;-87
2023/03/11 12:26:38;;;;;;;2.80;1.10;;;13.20;80.10;;;;;;5033832;28;20588;-87
2023/03/11 12:29:23;;;;;;;4.43;0.90;;;13.30;81.10;;;;;;5033925;28;20609;-87
2023/03/11 12:31:50;;;;;;;5.90;1.40;;;13.20;80.00;;;;;;5033777;28;20581;-86
2023/03/11 12:34:19;;;;;;;3.33;1.50;;;13.30;82.00;;;;;;5035758;28;20932;-87
2023/03/11 12:36:47;;;;;;;2.93;1.10;;;13.20;79.60;;;;;;5033901;28;21440;-87
2023/03/11 12:39:24;;;;;;;2.37;0.90;;;13.00;78.90;;;;;;5033516;28;20705;-88
2023/03/11 12:42:09;;;;;;;2.63;0.80;;;12.80;76.80;;;;;;5031626;28;20600;-86
2023/03/11 12:44:38;;;;;;;1.70;0.80;;;12.60;73.90;;;;;;5031750;28;20643;-86
2023/03/11 12:47:07;;;;;;;2.30;0.83;;;12.40;76.90;;;;;;5030407;28;20668;-81
2023/03/11 12:49:59;;;;;;;5.10;0.80;;;12.30;77.10;;;;;;5031061;28;20838;-81
2023/03/11 12:52:28;;;;;;;2.47;0.93;;;12.20;77.80;;;;;;5007348;28;20608;-82
2023/03/11 12:54:54;;;;;;;1.47;0.60;;;12.20;75.90;;;;;;5031093;28;21092;-82
2023/03/11 12:57:19;;;;;;;1.90;0.70;;;12.10;77.80;;;;;;5031224;28;20592;-82
2023/03/11 13:00:16;;;;;;;1.70;0.70;;;12.10;78.90;;;;;;5030714;28;20178;-81
2023/03/11 13:03:24;;;;;;;1.53;0.70;;;12.10;76.70;;;;;;5030565;28;20177;-80
2023/03/11 13:05:56;;;;;;;3.70;0.67;;;12.00;77.60;;;;;;5021284;28;20663;-81
2023/03/11 13:08:27;;;;;;;5.10;1.87;;;11.90;78.10;;;;;;5030352;28;20620;-79